createdAt,value
2022-12-19T00:00:21.284Z,1008.64
2022-12-19T00:01:21.302Z,1008.68
2022-12-19T00:02:21.312Z,1008.68
2022-12-19T00:03:21.414Z,1008.73
2022-12-19T00:04:21.229Z,1008.70
2022-12-19T00:05:21.225Z,1008.70
2022-12-19T00:06:21.204Z,1008.71
2022-12-19T00:07:21.195Z,1008.59
2022-12-19T00:08:21.261Z,1008.60
2022-12-19T00:09:21.207Z,1008.60
2022-12-19T00:10:21.157Z,1008.57
2022-12-19T00:11:21.154Z,1008.62
2022-12-19T00:12:21.135Z,1008.58
2022-12-19T00:13:21.124Z,1008.53
2022-12-19T00:14:21.117Z,1008.57
2022-12-19T00:15:21.132Z,1008.68
2022-12-19T00:16:21.178Z,1008.69
2022-12-19T00:17:21.074Z,1008.66
2022-12-19T00:18:21.069Z,1008.54
2022-12-19T00:19:21.061Z,1008.49
2022-12-19T00:20:21.059Z,1008.51
2022-12-19T00:21:21.061Z,1008.55
2022-12-19T00:22:21.023Z,1008.51
2022-12-19T00:23:21.012Z,1008.43
2022-12-19T00:24:21.834Z,1008.42
2022-12-19T00:25:20.991Z,1008.40
2022-12-19T00:26:20.984Z,1008.40
2022-12-19T00:27:20.982Z,1008.33
2022-12-19T00:28:20.953Z,1008.40
2022-12-19T00:29:20.955Z,1008.41
2022-12-19T00:30:20.934Z,1008.44
2022-12-19T00:31:20.962Z,1008.37
2022-12-19T00:32:20.930Z,1008.36
2022-12-19T00:33:20.901Z,1008.40
2022-12-19T00:34:20.883Z,1008.34
2022-12-19T00:35:20.886Z,1008.36
2022-12-19T00:36:22.465Z,1008.32
2022-12-19T00:37:20.859Z,1008.31
2022-12-19T00:38:20.901Z,1008.31
2022-12-19T00:39:20.840Z,1008.31
2022-12-19T00:40:20.820Z,1008.31
2022-12-19T00:41:20.819Z,1008.42
2022-12-19T00:42:20.803Z,1008.54
2022-12-19T00:43:20.790Z,1008.51
2022-12-19T00:44:20.828Z,1008.49
2022-12-19T00:45:20.770Z,1008.47
2022-12-19T00:46:20.802Z,1008.50
2022-12-19T00:47:20.756Z,1008.53
2022-12-19T00:48:20.740Z,1008.52
2022-12-19T00:49:20.732Z,1008.49
2022-12-19T00:50:20.759Z,1008.45
2022-12-19T00:51:20.710Z,1008.36
2022-12-19T00:52:20.690Z,1008.32
2022-12-19T00:53:20.679Z,1008.31
2022-12-19T00:54:20.696Z,1008.23
2022-12-19T00:55:20.731Z,1008.22
2022-12-19T00:56:20.664Z,1008.27
2022-12-19T00:57:20.633Z,1008.27
2022-12-19T00:58:20.619Z,1008.32
2022-12-19T00:59:26.443Z,1008.34
2022-12-19T01:00:21.664Z,1008.29
2022-12-19T01:01:20.748Z,1008.26
2022-12-19T01:02:20.725Z,1008.22
2022-12-19T01:03:20.613Z,1008.18
2022-12-19T01:04:29.254Z,1008.28
2022-12-19T01:05:21.537Z,1008.26
2022-12-19T01:06:20.567Z,1008.16
2022-12-19T01:07:20.528Z,1008.18
2022-12-19T01:08:20.516Z,1008.16
2022-12-19T01:09:20.496Z,1008.21
2022-12-19T01:10:20.486Z,1008.26
2022-12-19T01:11:20.468Z,1008.28
2022-12-19T01:12:20.513Z,1008.30
2022-12-19T01:13:20.510Z,1008.36
2022-12-19T01:14:23.045Z,1008.38
2022-12-19T01:15:20.459Z,1008.32
2022-12-19T01:16:20.480Z,1008.38
2022-12-19T01:17:20.407Z,1008.40
2022-12-19T01:18:20.415Z,1008.30
2022-12-19T01:19:20.397Z,1008.30
2022-12-19T01:20:21.388Z,1008.36
2022-12-19T01:21:21.363Z,1008.33
2022-12-19T01:22:20.359Z,1008.28
2022-12-19T01:23:20.335Z,1008.30
2022-12-19T01:24:20.345Z,1008.26
2022-12-19T01:25:20.314Z,1008.28
2022-12-19T01:26:20.304Z,1008.28
2022-12-19T01:27:20.294Z,1008.34
2022-12-19T01:28:20.284Z,1008.21
2022-12-19T01:29:20.276Z,1008.25
2022-12-19T01:30:20.323Z,1008.33
2022-12-19T01:31:20.304Z,1008.26
2022-12-19T01:32:20.254Z,1008.24
2022-12-19T01:33:20.226Z,1008.23
2022-12-19T01:34:20.214Z,1008.15
2022-12-19T01:35:21.697Z,1008.18
2022-12-19T01:36:20.221Z,1008.13
2022-12-19T01:37:20.187Z,1008.19
2022-12-19T01:38:20.178Z,1008.18
2022-12-19T01:39:20.153Z,1008.19
2022-12-19T01:40:20.161Z,1008.20
2022-12-19T01:41:20.133Z,1008.19
2022-12-19T01:42:23.380Z,1008.22
2022-12-19T01:43:20.113Z,1008.19
2022-12-19T01:44:20.113Z,1008.19
2022-12-19T01:45:20.091Z,1008.18
2022-12-19T01:46:20.117Z,1008.18
2022-12-19T01:47:20.066Z,1008.16
2022-12-19T01:48:20.072Z,1008.13
2022-12-19T01:49:20.945Z,1008.08
2022-12-19T01:50:21.031Z,1008.07
2022-12-19T01:51:20.021Z,1008.08
2022-12-19T01:52:23.512Z,1008.08
2022-12-19T01:53:20.021Z,1007.98
2022-12-19T01:54:19.995Z,1008.00
2022-12-19T01:55:19.979Z,1007.99
2022-12-19T01:56:19.937Z,1007.98
2022-12-19T01:57:19.948Z,1007.96
2022-12-19T01:58:19.936Z,1007.97
2022-12-19T01:59:19.923Z,1007.96
2022-12-19T02:00:19.898Z,1007.97
2022-12-19T02:01:19.967Z,1007.95
2022-12-19T02:02:19.919Z,1007.85
2022-12-19T02:03:19.885Z,1007.86
2022-12-19T02:04:19.870Z,1007.90
2022-12-19T02:05:19.842Z,1007.90
2022-12-19T02:06:19.835Z,1007.93
2022-12-19T02:07:19.808Z,1007.91
2022-12-19T02:08:19.807Z,1007.91
2022-12-19T02:09:19.798Z,1007.93
2022-12-19T02:10:19.810Z,1007.96
2022-12-19T02:11:19.768Z,1008.00
2022-12-19T02:12:19.759Z,1007.91
2022-12-19T02:13:19.748Z,1007.93
2022-12-19T02:14:19.745Z,1007.98
2022-12-19T02:15:19.730Z,1008.00
2022-12-19T02:16:19.789Z,1007.92
2022-12-19T02:17:19.701Z,1007.89
2022-12-19T02:18:19.692Z,1007.90
2022-12-19T02:19:19.689Z,1007.95
2022-12-19T02:20:19.670Z,1007.89
2022-12-19T02:21:19.667Z,1007.88
2022-12-19T02:22:19.683Z,1007.88
2022-12-19T02:23:19.631Z,1007.93
2022-12-19T02:24:19.635Z,1007.89
2022-12-19T02:25:19.621Z,1007.91
2022-12-19T02:26:19.618Z,1007.94
2022-12-19T02:27:19.632Z,1007.94
2022-12-19T02:28:19.581Z,1007.82
2022-12-19T02:29:19.582Z,1007.85
2022-12-19T02:30:19.565Z,1007.76
2022-12-19T02:31:19.567Z,1007.82
2022-12-19T02:32:19.553Z,1007.83
2022-12-19T02:33:19.545Z,1007.87
2022-12-19T02:34:19.546Z,1007.82
2022-12-19T02:35:19.506Z,1007.88
2022-12-19T02:36:19.500Z,1007.79
2022-12-19T02:37:19.486Z,1007.71
2022-12-19T02:38:19.477Z,1007.72
2022-12-19T02:39:19.486Z,1007.74
2022-12-19T02:40:19.474Z,1007.75
2022-12-19T02:41:19.439Z,1007.68
2022-12-19T02:42:19.437Z,1007.59
2022-12-19T02:43:19.477Z,1007.64
2022-12-19T02:44:19.422Z,1007.63
2022-12-19T02:45:28.475Z,1007.63
2022-12-19T02:46:20.460Z,1007.62
2022-12-19T02:47:19.381Z,1007.52
2022-12-19T02:48:19.644Z,1007.48
2022-12-19T02:49:21.344Z,1007.47
2022-12-19T02:50:20.379Z,1007.44
2022-12-19T02:51:19.336Z,1007.45
2022-12-19T02:52:19.348Z,1007.52
2022-12-19T02:53:23.779Z,1007.52
2022-12-19T02:54:19.304Z,1007.46
2022-12-19T02:55:19.300Z,1007.53
2022-12-19T02:56:19.318Z,1007.53
2022-12-19T02:57:19.310Z,1007.64
2022-12-19T02:58:19.270Z,1007.66
2022-12-19T02:59:19.245Z,1007.68
2022-12-19T03:00:19.257Z,1007.66
2022-12-19T03:01:19.336Z,1007.67
2022-12-19T03:02:19.361Z,1007.66
2022-12-19T03:03:19.260Z,1007.64
2022-12-19T03:04:19.197Z,1007.58
2022-12-19T03:05:19.186Z,1007.60
2022-12-19T03:06:19.170Z,1007.56
2022-12-19T03:07:19.158Z,1007.61
2022-12-19T03:08:19.180Z,1007.62
2022-12-19T03:09:19.142Z,1007.42
2022-12-19T03:10:19.129Z,1007.37
2022-12-19T03:11:19.118Z,1007.34
2022-12-19T03:12:19.111Z,1007.25
2022-12-19T03:13:19.100Z,1007.25
2022-12-19T03:14:19.100Z,1007.13
2022-12-19T03:15:19.080Z,1007.12
2022-12-19T03:16:19.102Z,1007.25
2022-12-19T03:17:19.051Z,1007.40
2022-12-19T03:18:26.110Z,1007.49
2022-12-19T03:19:20.722Z,1007.44
2022-12-19T03:20:19.018Z,1007.45
2022-12-19T03:21:19.010Z,1007.52
2022-12-19T03:22:19.004Z,1007.50
2022-12-19T03:23:18.992Z,1007.55
2022-12-19T03:24:18.999Z,1007.51
2022-12-19T03:25:18.962Z,1007.48
2022-12-19T03:26:18.952Z,1007.47
2022-12-19T03:27:18.941Z,1007.46
2022-12-19T03:28:18.933Z,1007.39
2022-12-19T03:29:18.948Z,1007.42
2022-12-19T03:30:18.945Z,1007.30
2022-12-19T03:31:18.972Z,1007.35
2022-12-19T03:32:18.894Z,1007.34
2022-12-19T03:33:18.878Z,1007.32
2022-12-19T03:34:18.862Z,1007.32
2022-12-19T03:35:18.859Z,1007.32
2022-12-19T03:36:18.850Z,1007.40
2022-12-19T03:37:18.832Z,1007.40
2022-12-19T03:38:18.823Z,1007.36
2022-12-19T03:39:18.812Z,1007.41
2022-12-19T03:40:18.796Z,1007.42
2022-12-19T03:41:18.805Z,1007.42
2022-12-19T03:42:18.780Z,1007.45
2022-12-19T03:43:18.764Z,1007.39
2022-12-19T03:44:18.773Z,1007.38
2022-12-19T03:45:18.743Z,1007.37
2022-12-19T03:46:18.815Z,1007.41
2022-12-19T03:47:18.749Z,1007.34
2022-12-19T03:48:18.713Z,1007.31
2022-12-19T03:49:18.697Z,1007.31
2022-12-19T03:50:18.693Z,1007.27
2022-12-19T03:51:18.693Z,1007.19
2022-12-19T03:52:18.664Z,1007.19
2022-12-19T03:53:18.717Z,1007.17
2022-12-19T03:54:18.645Z,1007.17
2022-12-19T03:55:18.622Z,1007.01
2022-12-19T03:56:18.633Z,1007.00
2022-12-19T03:57:18.634Z,1007.00
2022-12-19T03:58:18.605Z,1006.93
2022-12-19T03:59:18.616Z,1006.82
2022-12-19T04:00:18.575Z,1006.92
2022-12-19T04:01:18.766Z,1006.89
2022-12-19T04:02:18.621Z,1006.96
2022-12-19T04:03:18.605Z,1006.87
2022-12-19T04:04:18.537Z,1006.86
2022-12-19T04:05:18.536Z,1006.95
2022-12-19T04:06:18.517Z,1006.97
2022-12-19T04:07:18.493Z,1007.06
2022-12-19T04:08:18.483Z,1006.93
2022-12-19T04:09:22.437Z,1007.04
2022-12-19T04:10:18.464Z,1006.96
2022-12-19T04:11:18.474Z,1006.94
2022-12-19T04:12:18.445Z,1006.94
2022-12-19T04:13:18.432Z,1006.94
2022-12-19T04:14:18.417Z,1006.95
2022-12-19T04:15:18.409Z,1007.02
2022-12-19T04:16:18.456Z,1006.98
2022-12-19T04:17:18.403Z,1006.97
2022-12-19T04:18:18.373Z,1006.98
2022-12-19T04:19:18.365Z,1007.00
2022-12-19T04:20:18.356Z,1007.03
2022-12-19T04:21:18.363Z,1007.03
2022-12-19T04:22:18.333Z,1006.92
2022-12-19T04:23:18.334Z,1006.94
2022-12-19T04:24:18.329Z,1006.94
2022-12-19T04:25:18.313Z,1006.96
2022-12-19T04:26:18.286Z,1006.87
2022-12-19T04:27:18.273Z,1006.89
2022-12-19T04:28:18.272Z,1006.83
2022-12-19T04:29:18.273Z,1006.78
2022-12-19T04:30:18.240Z,1006.87
2022-12-19T04:31:18.319Z,1006.88
2022-12-19T04:32:18.229Z,1006.84
2022-12-19T04:33:18.202Z,1006.83
2022-12-19T04:34:18.219Z,1006.87
2022-12-19T04:35:18.182Z,1006.82
2022-12-19T04:36:18.172Z,1006.74
2022-12-19T04:37:18.181Z,1006.74
2022-12-19T04:38:18.149Z,1006.78
2022-12-19T04:39:18.136Z,1006.75
2022-12-19T04:40:18.151Z,1006.73
2022-12-19T04:41:18.109Z,1006.67
2022-12-19T04:42:18.101Z,1006.69
2022-12-19T04:43:18.090Z,1006.66
2022-12-19T04:44:18.083Z,1006.65
2022-12-19T04:45:18.069Z,1006.62
2022-12-19T04:46:18.109Z,1006.61
2022-12-19T04:47:18.039Z,1006.62
2022-12-19T04:48:18.047Z,1006.66
2022-12-19T04:49:18.021Z,1006.65
2022-12-19T04:50:18.007Z,1006.70
2022-12-19T04:51:18.004Z,1006.62
2022-12-19T04:52:18.009Z,1006.63
2022-12-19T04:53:17.981Z,1006.65
2022-12-19T04:54:17.968Z,1006.63
2022-12-19T04:55:17.949Z,1006.61
2022-12-19T04:56:17.937Z,1006.63
2022-12-19T04:57:17.981Z,1006.62
2022-12-19T04:58:21.623Z,1006.41
2022-12-19T04:59:17.909Z,1006.48
2022-12-19T05:00:17.905Z,1006.42
2022-12-19T05:01:17.985Z,1006.36
2022-12-19T05:02:17.954Z,1006.45
2022-12-19T05:03:17.969Z,1006.52
2022-12-19T05:04:17.856Z,1006.48
2022-12-19T05:05:17.838Z,1006.51
2022-12-19T05:06:17.827Z,1006.51
2022-12-19T05:07:17.822Z,1006.56
2022-12-19T05:08:17.816Z,1006.54
2022-12-19T05:09:17.823Z,1006.53
2022-12-19T05:10:17.783Z,1006.54
2022-12-19T05:11:19.875Z,1006.51
2022-12-19T05:12:17.766Z,1006.53
2022-12-19T05:13:17.755Z,1006.42
2022-12-19T05:14:17.735Z,1006.56
2022-12-19T05:15:17.749Z,1006.57
2022-12-19T05:16:17.878Z,1006.61
2022-12-19T05:17:17.704Z,1006.60
2022-12-19T05:18:17.694Z,1006.53
2022-12-19T05:19:17.684Z,1006.59
2022-12-19T05:20:17.671Z,1006.48
2022-12-19T05:21:17.684Z,1006.46
2022-12-19T05:22:17.643Z,1006.50
2022-12-19T05:23:17.958Z,1006.41
2022-12-19T05:24:17.622Z,1006.43
2022-12-19T05:25:17.613Z,1006.58
2022-12-19T05:26:17.605Z,1006.58
2022-12-19T05:27:17.619Z,1006.60
2022-12-19T05:28:17.574Z,1006.53
2022-12-19T05:29:17.564Z,1006.45
2022-12-19T05:30:17.553Z,1006.49
2022-12-19T05:31:17.608Z,1006.53
2022-12-19T05:32:17.533Z,1006.47
2022-12-19T05:33:17.539Z,1006.41
2022-12-19T05:34:17.513Z,1006.38
2022-12-19T05:35:17.501Z,1006.42
2022-12-19T05:36:17.498Z,1006.39
2022-12-19T05:37:17.479Z,1006.42
2022-12-19T05:38:17.460Z,1006.49
2022-12-19T05:39:17.470Z,1006.46
2022-12-19T05:40:17.437Z,1006.48
2022-12-19T05:41:17.429Z,1006.47
2022-12-19T05:42:17.426Z,1006.53
2022-12-19T05:43:17.408Z,1006.53
2022-12-19T05:44:17.409Z,1006.56
2022-12-19T05:45:17.388Z,1006.53
2022-12-19T05:46:17.421Z,1006.55
2022-12-19T05:47:17.358Z,1006.52
2022-12-19T05:48:17.347Z,1006.48
2022-12-19T05:49:17.349Z,1006.50
2022-12-19T05:50:17.346Z,1006.48
2022-12-19T05:51:17.316Z,1006.51
2022-12-19T05:52:17.312Z,1006.52
2022-12-19T05:53:19.677Z,1006.52
2022-12-19T05:54:18.276Z,1006.58
2022-12-19T05:55:17.277Z,1006.49
2022-12-19T05:56:17.285Z,1006.51
2022-12-19T05:57:17.245Z,1006.52
2022-12-19T05:58:17.235Z,1006.54
2022-12-19T05:59:17.231Z,1006.52
2022-12-19T06:00:17.217Z,1006.54
2022-12-19T06:01:17.277Z,1006.50
2022-12-19T06:02:17.381Z,1006.54
2022-12-19T06:03:17.324Z,1006.57
2022-12-19T06:04:17.175Z,1006.50
2022-12-19T06:05:17.157Z,1006.45
2022-12-19T06:06:17.147Z,1006.48
2022-12-19T06:07:20.924Z,1006.52
2022-12-19T06:08:17.149Z,1006.53
2022-12-19T06:09:17.111Z,1006.53
2022-12-19T06:10:17.103Z,1006.54
2022-12-19T06:11:17.090Z,1006.53
2022-12-19T06:12:17.073Z,1006.56
2022-12-19T06:13:22.106Z,1006.60
2022-12-19T06:14:18.073Z,1006.58
2022-12-19T06:15:17.049Z,1006.62
2022-12-19T06:16:17.045Z,1006.58
2022-12-19T06:17:17.030Z,1006.61
2022-12-19T06:18:17.003Z,1006.60
2022-12-19T06:19:17.000Z,1006.60
2022-12-19T06:20:16.999Z,1006.61
2022-12-19T06:21:16.974Z,1006.64
2022-12-19T06:22:16.960Z,1006.60
2022-12-19T06:23:16.980Z,1006.68
2022-12-19T06:24:16.943Z,1006.67
2022-12-19T06:25:16.978Z,1006.66
2022-12-19T06:26:19.649Z,1006.69
2022-12-19T06:27:16.908Z,1006.76
2022-12-19T06:28:16.897Z,1006.68
2022-12-19T06:29:16.894Z,1006.71
2022-12-19T06:30:16.874Z,1006.72
2022-12-19T06:31:16.929Z,1006.74
2022-12-19T06:32:16.851Z,1006.73
2022-12-19T06:33:16.839Z,1006.73
2022-12-19T06:34:39.461Z,1006.76
2022-12-19T06:35:17.807Z,1006.69
2022-12-19T06:36:16.796Z,1006.66
2022-12-19T06:37:16.811Z,1006.72
2022-12-19T06:38:16.777Z,1006.67
2022-12-19T06:39:16.768Z,1006.69
2022-12-19T06:40:16.756Z,1006.67
2022-12-19T06:41:16.751Z,1006.62
2022-12-19T06:42:16.736Z,1006.63
2022-12-19T06:43:16.750Z,1006.68
2022-12-19T06:44:16.715Z,1006.68
2022-12-19T06:45:16.705Z,1006.73
2022-12-19T06:46:16.774Z,1006.72
2022-12-19T06:47:16.677Z,1006.66
2022-12-19T06:48:16.655Z,1006.78
2022-12-19T06:49:16.687Z,1006.71
2022-12-19T06:50:16.655Z,1006.73
2022-12-19T06:51:16.634Z,1006.70
2022-12-19T06:52:16.633Z,1006.71
2022-12-19T06:53:16.614Z,1006.72
2022-12-19T06:54:16.593Z,1006.70
2022-12-19T06:55:16.614Z,1006.68
2022-12-19T06:56:16.581Z,1006.69
2022-12-19T06:57:16.562Z,1006.69
2022-12-19T06:58:20.184Z,1006.72
2022-12-19T06:59:17.542Z,1006.69
2022-12-19T07:00:16.532Z,1006.68
2022-12-19T07:01:16.568Z,1006.67
2022-12-19T07:02:16.578Z,1006.61
2022-12-19T07:03:16.515Z,1006.70
2022-12-19T07:04:16.503Z,1006.68
2022-12-19T07:05:16.473Z,1006.70
2022-12-19T07:06:16.461Z,1006.65
2022-12-19T07:07:16.505Z,1006.56
2022-12-19T07:08:16.432Z,1006.58
2022-12-19T07:09:16.438Z,1006.51
2022-12-19T07:10:16.460Z,1006.57
2022-12-19T07:11:16.410Z,1006.51
2022-12-19T07:12:16.403Z,1006.54
2022-12-19T07:13:16.421Z,1006.53
2022-12-19T07:14:16.412Z,1006.56
2022-12-19T07:15:16.364Z,1006.54
2022-12-19T07:16:16.441Z,1006.59
2022-12-19T07:17:16.339Z,1006.54
2022-12-19T07:18:16.327Z,1006.56
2022-12-19T07:19:16.353Z,1006.56
2022-12-19T07:20:16.300Z,1006.60
2022-12-19T07:21:16.304Z,1006.67
2022-12-19T07:22:16.302Z,1006.64
2022-12-19T07:23:16.275Z,1006.66
2022-12-19T07:24:16.265Z,1006.66
2022-12-19T07:25:16.278Z,1006.66
2022-12-19T07:26:16.245Z,1006.57
2022-12-19T07:27:16.228Z,1006.56
2022-12-19T07:28:16.206Z,1006.57
2022-12-19T07:29:16.205Z,1006.56
2022-12-19T07:30:16.188Z,1006.57
2022-12-19T07:31:16.236Z,1006.61
2022-12-19T07:32:16.189Z,1006.68
2022-12-19T07:33:21.238Z,1006.70
2022-12-19T07:34:17.151Z,1006.72
2022-12-19T07:35:16.180Z,1006.67
2022-12-19T07:36:16.128Z,1006.70
2022-12-19T07:37:16.126Z,1006.66
2022-12-19T07:38:16.099Z,1006.63
2022-12-19T07:39:16.096Z,1006.54
2022-12-19T07:40:16.088Z,1006.65
2022-12-19T07:41:16.072Z,1006.66
2022-12-19T07:42:16.163Z,1006.67
2022-12-19T07:43:16.047Z,1006.65
2022-12-19T07:44:16.036Z,1006.71
2022-12-19T07:45:16.032Z,1006.74
2022-12-19T07:46:16.122Z,1006.71
2022-12-19T07:47:16.003Z,1006.69
2022-12-19T07:48:16.022Z,1006.67
2022-12-19T07:49:21.019Z,1006.67
2022-12-19T07:50:16.963Z,1006.69
2022-12-19T07:51:15.965Z,1006.69
2022-12-19T07:52:15.943Z,1006.64
2022-12-19T07:53:15.934Z,1006.63
2022-12-19T07:54:15.945Z,1006.70
2022-12-19T07:55:15.926Z,1006.73
2022-12-19T07:56:15.894Z,1006.75
2022-12-19T07:57:15.914Z,1006.75
2022-12-19T07:58:15.889Z,1006.78
2022-12-19T07:59:15.883Z,1006.73
2022-12-19T08:00:15.876Z,1006.72
2022-12-19T08:01:15.975Z,1006.73
2022-12-19T08:02:15.868Z,1006.73
2022-12-19T08:03:15.861Z,1006.73
2022-12-19T08:04:15.802Z,1006.73
2022-12-19T08:05:15.840Z,1006.73
2022-12-19T08:06:15.812Z,1006.78
2022-12-19T08:07:15.790Z,1006.73
2022-12-19T08:08:15.762Z,1006.76
2022-12-19T08:09:15.752Z,1006.76
2022-12-19T08:10:15.745Z,1006.68
2022-12-19T08:11:15.733Z,1006.70
2022-12-19T08:12:15.761Z,1006.72
2022-12-19T08:13:15.703Z,1006.75
2022-12-19T08:14:15.691Z,1006.75
2022-12-19T08:15:15.716Z,1006.80
2022-12-19T08:16:15.735Z,1006.80
2022-12-19T08:17:20.740Z,1006.81
2022-12-19T08:18:16.696Z,1006.74
2022-12-19T08:19:15.637Z,1006.77
2022-12-19T08:20:15.629Z,1006.72
2022-12-19T08:21:15.622Z,1006.73
2022-12-19T08:22:15.624Z,1006.70
2022-12-19T08:23:15.606Z,1006.69
2022-12-19T08:24:15.602Z,1006.68
2022-12-19T08:25:15.575Z,1006.72
2022-12-19T08:26:15.568Z,1006.76
2022-12-19T08:27:15.549Z,1006.76
2022-12-19T08:28:15.540Z,1006.70
2022-12-19T08:29:15.530Z,1006.78
2022-12-19T08:30:15.561Z,1006.77
2022-12-19T08:31:15.552Z,1006.79
2022-12-19T08:32:20.516Z,1006.81
2022-12-19T08:33:16.492Z,1006.80
2022-12-19T08:34:15.490Z,1006.87
2022-12-19T08:35:15.490Z,1006.88
2022-12-19T08:36:15.496Z,1006.86
2022-12-19T08:37:15.454Z,1006.81
2022-12-19T08:38:15.488Z,1006.85
2022-12-19T08:39:15.555Z,1006.84
2022-12-19T08:40:15.409Z,1006.79
2022-12-19T08:41:15.417Z,1006.82
2022-12-19T08:42:15.378Z,1006.74
2022-12-19T08:43:15.369Z,1006.78
2022-12-19T08:44:15.380Z,1006.77
2022-12-19T08:45:15.356Z,1006.74
2022-12-19T08:46:15.344Z,1006.80
2022-12-19T08:47:15.350Z,1006.71
2022-12-19T08:48:15.316Z,1006.78
2022-12-19T08:49:15.301Z,1006.72
2022-12-19T08:50:15.300Z,1006.73
2022-12-19T08:51:15.293Z,1006.75
2022-12-19T08:52:15.277Z,1006.75
2022-12-19T08:53:15.542Z,1006.72
2022-12-19T08:54:15.256Z,1006.67
2022-12-19T08:55:15.238Z,1006.60
2022-12-19T08:56:15.231Z,1006.59
2022-12-19T08:57:15.208Z,1006.56
2022-12-19T08:58:15.216Z,1006.43
2022-12-19T08:59:21.229Z,1006.50
2022-12-19T09:00:16.176Z,1006.45
2022-12-19T09:01:15.277Z,1006.43
2022-12-19T09:02:15.351Z,1006.44
2022-12-19T09:03:15.479Z,1006.41
2022-12-19T09:05:47.079Z,1006.39
2022-12-19T09:06:00.335Z,1006.47
2022-12-19T09:06:19.214Z,1006.47
2022-12-19T09:07:15.333Z,1006.58
2022-12-19T09:08:15.092Z,1006.60
2022-12-19T09:09:15.089Z,1006.56
2022-12-19T09:10:15.108Z,1006.64
2022-12-19T09:11:15.057Z,1006.54
2022-12-19T09:12:15.052Z,1006.57
2022-12-19T09:13:15.034Z,1006.52
2022-12-19T09:14:15.027Z,1006.51
2022-12-19T09:15:16.058Z,1006.50
2022-12-19T09:16:15.012Z,1006.46
2022-12-19T09:17:15.104Z,1006.47
2022-12-19T09:18:14.975Z,1006.53
2022-12-19T09:19:14.966Z,1006.50
2022-12-19T09:20:19.536Z,1006.47
2022-12-19T09:21:16.000Z,1006.58
2022-12-19T09:22:14.937Z,1006.62
2022-12-19T09:23:14.935Z,1006.64
2022-12-19T09:24:14.911Z,1006.60
2022-12-19T09:25:14.911Z,1006.57
2022-12-19T09:26:14.913Z,1006.62
2022-12-19T09:27:14.914Z,1006.62
2022-12-19T09:28:28.098Z,1006.63
2022-12-19T09:29:20.376Z,1006.61
2022-12-19T09:30:15.835Z,1006.54
2022-12-19T09:31:14.978Z,1006.59
2022-12-19T09:32:14.840Z,1006.53
2022-12-19T09:33:14.869Z,1006.49
2022-12-19T09:34:14.824Z,1006.49
2022-12-19T09:35:14.800Z,1006.49
2022-12-19T09:36:14.789Z,1006.59
2022-12-19T09:37:17.133Z,1006.54
2022-12-19T09:38:14.753Z,1006.53
2022-12-19T09:39:14.769Z,1006.61
2022-12-19T09:40:14.740Z,1006.55
2022-12-19T09:41:16.814Z,1006.55
2022-12-19T09:42:14.717Z,1006.51
2022-12-19T09:43:14.694Z,1006.50
2022-12-19T09:44:14.684Z,1006.50
2022-12-19T09:45:25.655Z,1006.49
2022-12-19T09:46:15.706Z,1006.47
2022-12-19T09:47:14.673Z,1006.54
2022-12-19T09:48:23.563Z,1006.42
2022-12-19T09:49:15.643Z,1006.44
2022-12-19T09:50:14.644Z,1006.51
2022-12-19T09:51:14.613Z,1006.46
2022-12-19T09:52:14.600Z,1006.48
2022-12-19T09:53:14.617Z,1006.47
2022-12-19T09:54:14.603Z,1006.47
2022-12-19T09:55:14.575Z,1006.46
2022-12-19T09:56:14.584Z,1006.42
2022-12-19T09:57:14.541Z,1006.43
2022-12-19T09:58:21.581Z,1006.35
2022-12-19T09:59:14.510Z,1006.42
2022-12-19T10:00:14.502Z,1006.33
2022-12-19T10:01:14.540Z,1006.31
2022-12-19T10:02:14.701Z,1006.40
2022-12-19T10:03:14.592Z,1006.38
2022-12-19T10:04:14.459Z,1006.43
2022-12-19T10:06:26.478Z,1006.41
2022-12-19T10:07:10.554Z,1006.47
2022-12-19T10:07:37.522Z,1006.42
2022-12-19T10:08:15.614Z,1006.44
2022-12-19T10:10:57.222Z,1006.38
2022-12-19T10:12:35.020Z,1006.38
2022-12-19T10:12:40.854Z,1006.33
2022-12-19T10:12:43.952Z,1006.31
2022-12-19T10:13:16.160Z,1006.31
2022-12-19T10:14:14.347Z,1006.33
2022-12-19T10:15:14.328Z,1006.35
2022-12-19T10:16:14.370Z,1006.27
2022-12-19T10:17:24.904Z,1006.21
2022-12-19T10:18:15.316Z,1006.28
2022-12-19T10:19:14.367Z,1006.17
2022-12-19T10:20:14.280Z,1006.21
2022-12-19T10:21:14.266Z,1006.16
2022-12-19T10:22:18.867Z,1006.03
2022-12-19T10:23:15.238Z,1005.97
2022-12-19T10:24:14.259Z,1005.99
2022-12-19T10:25:14.224Z,1005.96
2022-12-19T10:26:14.221Z,1006.05
2022-12-19T10:27:14.202Z,1006.05
2022-12-19T10:28:14.208Z,1006.08
2022-12-19T10:29:14.216Z,1006.05
2022-12-19T10:30:14.213Z,1006.02
2022-12-19T10:31:19.091Z,1006.02
2022-12-19T10:32:15.225Z,1005.97
2022-12-19T10:33:20.512Z,1005.95
2022-12-19T10:34:16.119Z,1005.92
2022-12-19T10:35:14.122Z,1006.06
2022-12-19T10:36:14.139Z,1006.05
2022-12-19T10:37:28.853Z,1005.98
2022-12-19T10:38:15.152Z,1005.96
2022-12-19T10:39:14.068Z,1006.06
2022-12-19T10:40:24.311Z,1006.02
2022-12-19T10:41:15.118Z,1006.06
2022-12-19T10:42:14.113Z,1005.99
2022-12-19T10:43:22.949Z,1005.92
2022-12-19T10:44:15.066Z,1005.92
2022-12-19T10:45:14.027Z,1005.84
2022-12-19T10:46:14.116Z,1005.94
2022-12-19T10:47:14.056Z,1005.90
2022-12-19T10:48:14.002Z,1005.99
2022-12-19T10:49:14.062Z,1005.94
2022-12-19T10:50:13.941Z,1005.95
2022-12-19T10:51:13.930Z,1006.01
2022-12-19T10:52:13.981Z,1005.95
2022-12-19T10:53:13.964Z,1005.94
2022-12-19T10:54:13.945Z,1005.93
2022-12-19T10:55:13.890Z,1005.97
2022-12-19T10:56:13.924Z,1006.00
2022-12-19T10:57:13.882Z,1005.99
2022-12-19T10:58:13.860Z,1005.95
2022-12-19T10:59:13.853Z,1006.05
2022-12-19T11:00:13.827Z,1005.92
2022-12-19T11:01:13.822Z,1005.89
2022-12-19T11:02:14.002Z,1005.93
2022-12-19T11:03:13.947Z,1005.95
2022-12-19T11:04:14.837Z,1005.83
2022-12-19T11:05:13.861Z,1005.84
2022-12-19T11:06:13.781Z,1005.79
2022-12-19T11:07:13.746Z,1005.84
2022-12-19T11:08:13.751Z,1005.87
2022-12-19T11:09:13.750Z,1005.69
2022-12-19T11:11:40.365Z,1005.84
2022-12-19T11:12:43.391Z,1005.74
2022-12-19T11:16:30.224Z,1005.73
2022-12-19T11:16:57.592Z,1005.68
2022-12-19T11:17:43.692Z,1005.67
2022-12-19T11:20:16.794Z,1005.68
2022-12-19T11:23:32.415Z,1005.61
2022-12-19T11:24:50.562Z,1005.59
2022-12-19T11:27:54.625Z,1005.55
2022-12-19T11:29:16.460Z,1005.50
2022-12-19T11:29:30.009Z,1005.39
2022-12-19T11:29:34.083Z,1005.45
2022-12-19T11:29:37.272Z,1005.50
2022-12-19T11:29:38.303Z,1005.47
2022-12-19T11:30:09.327Z,1005.40
2022-12-19T11:30:36.056Z,1005.39
2022-12-19T11:30:36.188Z,1005.36
2022-12-19T11:30:40.811Z,1005.39
2022-12-19T11:30:47.264Z,1005.36
2022-12-19T11:30:48.364Z,1005.40
2022-12-19T11:32:01.806Z,1005.30
2022-12-19T11:32:39.565Z,1005.30
2022-12-19T11:33:14.626Z,1005.22
2022-12-19T11:34:13.506Z,1005.23
2022-12-19T11:35:13.448Z,1005.30
2022-12-19T11:36:13.472Z,1005.31
2022-12-19T11:37:13.464Z,1005.26
2022-12-19T11:38:13.427Z,1005.27
2022-12-19T11:39:13.464Z,1005.33
2022-12-19T11:40:13.430Z,1005.28
2022-12-19T11:41:13.404Z,1005.31
2022-12-19T11:42:13.396Z,1005.30
2022-12-19T11:43:42.432Z,1005.29
2022-12-19T11:44:14.401Z,1005.33
2022-12-19T11:45:13.323Z,1005.30
2022-12-19T11:46:19.479Z,1005.33
2022-12-19T11:47:14.385Z,1005.33
2022-12-19T11:48:13.322Z,1005.32
2022-12-19T11:49:13.294Z,1005.37
2022-12-19T11:50:13.384Z,1005.37
2022-12-19T11:51:13.307Z,1005.36
2022-12-19T11:52:36.824Z,1005.30
2022-12-19T11:53:18.863Z,1005.28
2022-12-19T11:54:14.257Z,1005.34
2022-12-19T11:55:13.222Z,1005.26
2022-12-19T11:56:16.341Z,1005.29
2022-12-19T11:57:13.237Z,1005.25
2022-12-19T11:58:13.218Z,1005.14
2022-12-19T11:59:13.207Z,1005.18
2022-12-19T12:00:13.379Z,1005.16
2022-12-19T12:01:13.255Z,1005.20
2022-12-19T12:02:13.162Z,1005.22
2022-12-19T12:03:13.146Z,1005.07
2022-12-19T12:04:13.271Z,1005.08
2022-12-19T12:05:13.182Z,1005.04
2022-12-19T12:06:13.111Z,1005.09